메인 페이지
METAR-TAF:

METAR-TAF

공항 :

상파울루 콩고냐스 공항

상파울루, 상파울루, 브라질

위도: 23-37S, 경도: 046-39W, 고도: 803m

현재 날씨관측

예보는 30분 전, 22:00시(UTC)에 발표되었습니다.
6kt
온도 23°C
습도 83%
기압 1017 hPa
시정: 7000m
고도 600ft 상공 구름 보통
고도 5000ft 상공 구름 많음

METAR: SBSP 022200Z 17006KT 7000 SCT006 BKN050 23/20 Q1017

시각: 19:30 (22:30 UTC)

예보

예보는 6 시간 30분 전, 16:00시(UTC)에 발표되었습니다.
예보 대상 시간: 02일 18시부터 03일 06시까지 (UTC)
10kt
시정 10km 이상
고도 4500ft 상공 구름 많음
확률 30%
02일 18시부터 02일 20시까지 (UTC)
10kt
고도 2500ft 상공 구름 많음
고도 4000ft 상공 구름 조금, 적란운.
뇌우, 비
전환 중
02일 21시부터 02일 23시까지 (UTC)
남동7kt
고도 900ft 상공 구름 보통

TAF: SBSP 021600Z 0218/0306 17010KT 9999 BKN045 TX29/0218Z TN20/0305Z PROB30 0218/0220 17010KT TSRA BKN025 FEW040CB BECMG 0221/0223 14007KT SCT009 RMK PGQ

4,000개 이상의 공항 관측 자료 및 예보 (METAR 및 TAF 보고).

지도상에서 검색 가능한 기상관측소가 노란 점과 빨간 점으로 표시되어 있습니다.

기상관측소 명을 보려면 표시 위로 마우스를 이동하세요.

날씨 관측과 예보를 보려면 클릭하세요.

지도 변경 : 확대하려면 엑스 표시가 있는 녹색 버튼, 축소하려면 빼기 표시가 있는 녹색 버튼, 다음 페이지의 지도를 보려면 녹색 화살표를 클릭하세요.


METAR-TAF: